SWA5383 KLAX-KLAS
Flight info
| Callsign | SWA5383 |
|---|---|
| Flight time | N/A |
| Altitude | 29000 |
| Route | ORCKA5 MISEN RNDRZ4 |
| Aircraft | B738/M-SDE2E3FGHIRWXY/LB1 |
Departure
| Time | 2026-05-05 02:16 |
|---|---|
| Airport | Los Angeles International Airport (KLAX) |
Arrival
| Time | N/A |
|---|---|
| Airport | Harry Reid International Airport (KLAS) |
| Time | Latitude | Longitude | Altitude | Speed | Heading |
|---|---|---|---|---|---|
| 2026-05-05 01:56 | 33.94714 | -118.40325 | 122 ft | 0 kts | 234° |
| 2026-05-05 01:59 | 33.94716 | -118.40322 | 121 ft | 2 kts | 234° |
| 2026-05-05 01:59 | 33.94723 | -118.40309 | 121 ft | 2 kts | 234° |
| 2026-05-05 02:00 | 33.94731 | -118.40297 | 119 ft | 2 kts | 234° |
| 2026-05-05 02:00 | 33.94738 | -118.40284 | 123 ft | 2 kts | 235° |
| 2026-05-05 02:00 | 33.94744 | -118.40270 | 122 ft | 2 kts | 267° |
| 2026-05-05 02:00 | 33.94738 | -118.40258 | 122 ft | 2 kts | 355° |
| 2026-05-05 02:01 | 33.94735 | -118.40258 | 122 ft | 0 kts | 354° |
| 2026-05-05 02:01 | 33.94733 | -118.40257 | 123 ft | 0 kts | 354° |
| 2026-05-05 02:01 | 33.94731 | -118.40257 | 121 ft | 0 kts | 354° |
| 2026-05-05 02:01 | 33.94732 | -118.40257 | 122 ft | 0 kts | 354° |
| 2026-05-05 02:07 | 33.94749 | -118.40260 | 128 ft | 0 kts | 354° |
| 2026-05-05 02:08 | 33.94771 | -118.40262 | 120 ft | 12 kts | 354° |
| 2026-05-05 02:08 | 33.94785 | -118.40264 | 122 ft | 1 kts | 355° |
| 2026-05-05 02:09 | 33.94790 | -118.40264 | 123 ft | 2 kts | 1° |
| 2026-05-05 02:09 | 33.94805 | -118.40260 | 122 ft | 2 kts | 19° |
| 2026-05-05 02:09 | 33.94818 | -118.40253 | 122 ft | 2 kts | 31° |
| 2026-05-05 02:09 | 33.94825 | -118.40239 | 123 ft | 2 kts | 71° |
| 2026-05-05 02:10 | 33.94829 | -118.40222 | 123 ft | 2 kts | 79° |
| 2026-05-05 02:10 | 33.94832 | -118.40199 | 125 ft | 2 kts | 82° |
| 2026-05-05 02:10 | 33.94833 | -118.40190 | 122 ft | 0 kts | 82° |
| 2026-05-05 02:14 | 33.93953 | -118.38325 | 121 ft | 0 kts | 263° |
| 2026-05-05 02:15 | 33.93950 | -118.38354 | 123 ft | 28 kts | 263° |
| 2026-05-05 02:16 | 33.93877 | -118.39073 | 125 ft | 141 kts | 263° |
| 2026-05-05 02:16 | 33.93734 | -118.40480 | 829 ft | 184 kts | 263° |
| 2026-05-05 02:16 | 33.93661 | -118.41214 | 1644 ft | 181 kts | 263° |
| 2026-05-05 02:16 | 33.93583 | -118.41976 | 2195 ft | 201 kts | 263° |
| 2026-05-05 02:17 | 33.93372 | -118.43815 | 2974 ft | 245 kts | 262° |
| 2026-05-05 02:17 | 33.93120 | -118.45917 | 4288 ft | 261 kts | 261° |
| 2026-05-05 02:17 | 33.92831 | -118.48170 | 5469 ft | 288 kts | 261° |
| 2026-05-05 02:17 | 33.92493 | -118.50680 | 6511 ft | 300 kts | 261° |
| 2026-05-05 02:18 | 33.92179 | -118.53006 | 8770 ft | 279 kts | 262° |
| 2026-05-05 02:18 | 33.91523 | -118.54920 | 10386 ft | 258 kts | 226° |
| 2026-05-05 02:20 | 33.90698 | -118.55697 | 11747 ft | 238 kts | 207° |
| 2026-05-05 02:22 | 33.90426 | -118.55851 | 12102 ft | 236 kts | 202° |
| 2026-05-05 02:23 | 33.88864 | -118.56068 | 13487 ft | 226 kts | 166° |
| 2026-05-05 02:23 | 33.87557 | -118.55155 | 14696 ft | 216 kts | 128° |
| 2026-05-05 02:23 | 33.87061 | -118.53861 | 15545 ft | 208 kts | 95° |
| 2026-05-05 02:26 | 33.87046 | -118.53701 | 15635 ft | 207 kts | 91° |